Logan International, MA

1:24 AM EDT on September 04, 2015 (GMT -0400)
Prattville | | Change Station
CLOSE
Current Station
Personal Weather Station
Location: Chelsea, MA
Elevation: 112 ft
Nearby Weather Stations

Elev 112 ft 42.41 °N, 71.04 °W | Updated 10 seconds ago

Light Rain
Light Rain
72.7 °F
Feels Like 72.7 °F
N
0.0
Wind Variable Wind from North
Gusts 0.0 mph

Today
High -- | Low -- °F
--% Chance of Precip.
Yesterday
High -- | Low -- °F
Precip. -- in
6:12 AM 7:13 PM
Waning Gibbous, 63% visible
Pressure 29.95 in
Visibility 6.0 miles
Clouds Scattered Clouds 4800 ft
Mostly Cloudy 6000 ft
Overcast 12000 ft
Dew Point 70 °F
Humidity 92%
Rainfall 0.07 in
Snow Depth Not available.
UV 0 out of 12
Pollen 8.60 out of 12
Air Quality Not available.
Flu Activity Not available.
METAR KBOS 040454Z 04003KT 6SM -RA SCT048 BKN060 OVC120 23/20 A2995 RMK AO2 TSE09RAB51 SLP141 TS DSIPTD P0000 T02280200 402780211
Pressure 29.95 in
Visibility 6.0 miles
Clouds Scattered Clouds 4800 ft
Mostly Cloudy 6000 ft
Overcast 12000 ft
Dew Point 70 °F
Humidity 92%
Rainfall 0.07 in
Snow Depth Not available.
UV 0 out of 12
Pollen 8.60 out of 12
Air Quality Not available.
Flu Activity Not available.
METAR KBOS 040454Z 04003KT 6SM -RA SCT048 BKN060 OVC120 23/20 A2995 RMK AO2 TSE09RAB51 SLP141 TS DSIPTD P0000 T02280200 402780211

10-Day Weather Forecast

×

Almanac

Astronomy

Sep. 04, 2015 Rise Set
Actual Time
Civil Twilight
Nautical Twilight
Astronomical Twilight
Moon
Length of Visible Light
Length of Day
Tomorrow will be .
, % of the Moon is Illuminated

Today's Extremes

State Highs State Lows

Community

WunderPhotos

Upload Photos

1,852,129 photos uploaded!

WunderBlogs® & News

Nearby

Air Quality

  Air Quality AQ Index Pollutant
Not available.

Snow Depth

Station Depth Elevation

Earthquake Activity

City Distance Mag. Time & Date
Minimum magnitude displayed is 2.5.

Coastal Water Temperatures

Place Temperature

Stations

Nearby Weather Stations

Station Location Temp. Windchill Dew Point Humidity Wind Precip. Elev Updated Type